createdAt,value
2022-08-09T00:01:23.021Z,3.03
2022-08-09T00:04:06.393Z,2.92
2022-08-09T00:06:38.956Z,4.30
2022-08-09T00:09:13.347Z,3.45
2022-08-09T00:12:02.558Z,4.20
2022-08-09T00:14:36.237Z,3.95
2022-08-09T00:17:06.956Z,4.18
2022-08-09T00:19:35.099Z,3.65
2022-08-09T00:22:04.269Z,3.60
2022-08-09T00:24:33.272Z,3.97
2022-08-09T00:27:01.571Z,3.45
2022-08-09T00:32:26.515Z,4.38
2022-08-09T00:34:56.385Z,3.58
2022-08-09T00:37:24.257Z,3.83
2022-08-09T00:40:09.172Z,4.30
2022-08-09T00:44:15.309Z,3.72
2022-08-09T00:45:28.054Z,4.85
2022-08-09T00:47:55.865Z,4.57
2022-08-09T00:50:25.251Z,5.18
2022-08-09T00:52:55.271Z,4.32
2022-08-09T00:56:02.925Z,4.83
2022-08-09T00:58:14.891Z,5.32
2022-08-09T01:00:57.039Z,5.57
2022-08-09T01:03:56.776Z,5.90
2022-08-09T01:06:53.799Z,5.43
2022-08-09T01:10:10.205Z,6.07
2022-08-09T01:13:41.734Z,6.25
2022-08-09T01:16:25.637Z,6.32
2022-08-09T01:19:02.616Z,6.32
2022-08-09T01:24:18.641Z,6.68
2022-08-09T01:27:08.862Z,6.30
2022-08-09T01:29:48.547Z,5.80
2022-08-09T01:32:34.763Z,5.43
2022-08-09T01:35:37.454Z,6.22
2022-08-09T01:38:15.864Z,6.38
2022-08-09T01:41:04.984Z,6.32
2022-08-09T01:43:50.827Z,7.07
2022-08-09T01:46:28.514Z,6.70
2022-08-09T01:49:16.402Z,7.18
2022-08-09T01:51:56.221Z,7.20
2022-08-09T01:54:42.293Z,6.90
2022-08-09T01:57:27.209Z,7.40
2022-08-09T02:00:19.211Z,7.57
2022-08-09T02:02:51.654Z,7.00
2022-08-09T02:05:37.773Z,6.40
2022-08-09T02:08:38.590Z,6.57
2022-08-09T02:11:16.587Z,6.85
2022-08-09T02:13:55.250Z,7.22
2022-08-09T02:16:53.330Z,7.57
2022-08-09T02:19:38.949Z,7.72
2022-08-09T02:22:35.890Z,8.02
2022-08-09T02:25:15.339Z,7.50
2022-08-09T02:28:03.730Z,6.82
2022-08-09T02:30:46.463Z,8.10
2022-08-09T02:33:37.915Z,7.13
2022-08-09T02:36:10.555Z,8.18
2022-08-09T02:38:47.619Z,7.00
2022-08-09T02:41:28.456Z,7.28
2022-08-09T02:44:10.545Z,7.40
2022-08-09T02:46:52.337Z,7.00
2022-08-09T02:49:20.483Z,7.28
2022-08-09T02:52:07.779Z,7.15
2022-08-09T02:57:25.149Z,7.57
2022-08-09T03:00:21.144Z,7.43
2022-08-09T03:02:58.556Z,7.75
2022-08-09T03:05:34.741Z,7.75
2022-08-09T03:08:04.674Z,8.98
2022-08-09T03:10:34.644Z,8.63
2022-08-09T03:13:08.617Z,9.07
2022-08-09T03:16:06.208Z,9.43
2022-08-09T03:18:31.032Z,9.57
2022-08-09T03:21:00.196Z,9.05
2022-08-09T03:23:28.445Z,9.32
2022-08-09T03:26:03.550Z,9.68
2022-08-09T03:28:33.885Z,9.07
2022-08-09T03:31:10.144Z,9.73
2022-08-09T03:33:54.558Z,10.57
2022-08-09T03:36:27.658Z,8.55
2022-08-09T03:38:57.181Z,9.45
2022-08-09T03:41:30.010Z,8.77
2022-08-09T03:44:12.762Z,9.32
2022-08-09T03:46:40.307Z,9.55
2022-08-09T03:49:09.660Z,9.38
2022-08-09T03:51:58.805Z,9.52
2022-08-09T03:54:38.513Z,8.65
2022-08-09T03:59:55.309Z,8.60
2022-08-09T04:02:29.462Z,8.13
2022-08-09T04:05:05.892Z,9.02
2022-08-09T04:07:52.320Z,8.88
2022-08-09T04:10:28.794Z,8.05
2022-08-09T04:13:04.365Z,8.57
2022-08-09T04:16:18.265Z,8.48
2022-08-09T04:18:21.224Z,8.13
2022-08-09T04:20:51.427Z,8.38
2022-08-09T04:23:23.531Z,7.65
2022-08-09T04:25:54.443Z,7.35
2022-08-09T04:28:30.622Z,6.95
2022-08-09T04:31:09.499Z,5.88
2022-08-09T04:33:51.777Z,7.97
2022-08-09T04:36:27.940Z,8.05
2022-08-09T04:38:59.553Z,6.68
2022-08-09T04:41:32.819Z,6.28
2022-08-09T04:44:10.985Z,6.95
2022-08-09T04:46:57.222Z,6.47
2022-08-09T04:49:53.606Z,6.43
2022-08-09T04:52:26.996Z,7.05
2022-08-09T04:55:01.038Z,6.80
2022-08-09T04:57:54.401Z,7.20
2022-08-09T05:00:17.506Z,6.35
2022-08-09T05:02:48.751Z,6.90
2022-08-09T05:05:31.500Z,5.13
2022-08-09T05:08:14.074Z,5.32
2022-08-09T05:10:43.149Z,4.90
2022-08-09T05:13:12.832Z,5.43
2022-08-09T05:15:52.157Z,5.15
2022-08-09T05:18:38.800Z,4.68
2022-08-09T05:21:22.942Z,5.35
2022-08-09T05:23:58.403Z,4.05
2022-08-09T05:26:45.284Z,4.68
2022-08-09T05:29:21.791Z,4.20
2022-08-09T05:31:59.094Z,5.20
2022-08-09T05:34:32.688Z,4.43
2022-08-09T05:37:05.223Z,5.38
2022-08-09T05:39:43.551Z,4.97
2022-08-09T05:42:17.375Z,4.38
2022-08-09T05:44:54.516Z,3.88
2022-08-09T05:47:25.286Z,4.57
2022-08-09T05:50:31.138Z,5.10
2022-08-09T05:55:18.054Z,5.47
2022-08-09T05:57:55.653Z,4.22
2022-08-09T06:00:33.117Z,5.40
2022-08-09T06:03:04.044Z,4.70
2022-08-09T06:05:57.520Z,4.55
2022-08-09T06:08:26.578Z,3.53
2022-08-09T06:10:55.856Z,3.47
2022-08-09T06:13:24.564Z,3.03
2022-08-09T06:15:53.061Z,3.72
2022-08-09T06:18:25.326Z,3.35
2022-08-09T06:20:57.667Z,3.05
2022-08-09T06:23:57.272Z,3.38
2022-08-09T06:26:20.442Z,3.33
2022-08-09T06:28:59.894Z,3.63
2022-08-09T06:31:39.814Z,4.97
2022-08-09T06:34:18.986Z,4.25
2022-08-09T06:36:46.806Z,4.47
2022-08-09T06:39:16.506Z,4.65
2022-08-09T06:42:07.522Z,4.38
2022-08-09T06:44:32.308Z,4.07
2022-08-09T06:47:01.144Z,3.92
2022-08-09T06:50:12.032Z,4.40
2022-08-09T06:52:17.713Z,4.15
2022-08-09T06:54:45.953Z,4.32
2022-08-09T06:57:14.192Z,4.95
2022-08-09T07:00:54.027Z,5.30
2022-08-09T07:02:31.931Z,4.88
2022-08-09T07:05:01.631Z,4.15
2022-08-09T07:07:59.534Z,4.90
2022-08-09T07:10:29.497Z,5.40
2022-08-09T07:12:58.289Z,5.40
2022-08-09T07:16:38.441Z,5.63
2022-08-09T07:20:47.693Z,5.93
2022-08-09T07:23:18.885Z,5.53
2022-08-09T07:25:52.343Z,5.40
2022-08-09T07:28:29.078Z,6.22
2022-08-09T07:30:57.062Z,6.25
2022-08-09T07:33:24.642Z,6.88
2022-08-09T07:35:53.877Z,6.32
2022-08-09T07:38:23.344Z,6.68
2022-08-09T07:43:41.300Z,6.63
2022-08-09T07:46:19.486Z,6.68
2022-08-09T07:48:58.853Z,8.25
2022-08-09T07:52:04.744Z,8.02
2022-08-09T07:54:19.268Z,6.80
2022-08-09T07:56:56.035Z,7.65
2022-08-09T07:59:34.569Z,7.70
2022-08-09T08:02:11.398Z,7.55
2022-08-09T08:04:48.861Z,7.65
2022-08-09T08:08:06.180Z,7.95
2022-08-09T08:10:10.886Z,8.00
2022-08-09T08:12:44.097Z,8.13
2022-08-09T08:15:18.373Z,7.72
2022-08-09T08:17:55.591Z,8.05
2022-08-09T08:20:32.297Z,8.43
2022-08-09T08:23:16.449Z,8.38
2022-08-09T08:25:50.261Z,8.90
2022-08-09T08:28:31.873Z,8.63
2022-08-09T08:31:10.530Z,9.57
2022-08-09T08:33:53.460Z,8.05
2022-08-09T08:36:28.963Z,8.48
2022-08-09T08:38:58.760Z,10.38
2022-08-09T08:41:50.838Z,9.05
2022-08-09T08:47:02.612Z,9.07
2022-08-09T08:49:46.473Z,8.23
2022-08-09T08:55:19.115Z,8.00
2022-08-09T08:57:56.520Z,7.90
2022-08-09T09:00:30.462Z,8.50
2022-08-09T09:03:11.563Z,8.90
2022-08-09T09:06:00.118Z,8.77
2022-08-09T09:08:41.070Z,8.60
2022-08-09T09:11:13.876Z,9.13
2022-08-09T09:13:56.327Z,10.07
2022-08-09T09:16:34.315Z,8.77
2022-08-09T09:19:37.572Z,9.13
2022-08-09T09:22:11.868Z,8.00
2022-08-09T09:24:45.848Z,9.20
2022-08-09T09:28:06.868Z,8.60
2022-08-09T09:33:13.943Z,9.77
2022-08-09T09:36:00.910Z,10.10
2022-08-09T09:38:52.379Z,9.05
2022-08-09T09:41:23.229Z,7.22
2022-08-09T09:44:12.490Z,8.70
2022-08-09T09:46:45.893Z,7.45
2022-08-09T09:49:56.219Z,9.27
2022-08-09T09:52:33.447Z,8.57
2022-08-09T09:55:23.927Z,9.25
2022-08-09T09:58:16.302Z,8.00
2022-08-09T10:00:59.615Z,9.00
2022-08-09T10:03:44.939Z,8.82
2022-08-09T10:06:24.640Z,8.68
2022-08-09T10:09:21.593Z,7.32
2022-08-09T10:12:11.859Z,8.13
2022-08-09T10:14:48.274Z,7.15
2022-08-09T10:17:50.197Z,7.63
2022-08-09T10:20:27.839Z,7.47
2022-08-09T10:23:20.374Z,9.30
2022-08-09T10:26:07.146Z,7.35
2022-08-09T10:28:41.652Z,7.95
2022-08-09T10:34:10.737Z,8.63
2022-08-09T10:36:56.317Z,8.50
2022-08-09T10:39:28.357Z,6.68
2022-08-09T10:41:56.744Z,8.00
2022-08-09T10:44:30.419Z,7.63
2022-08-09T10:48:19.229Z,6.93
2022-08-09T10:51:05.127Z,6.55
2022-08-09T10:53:54.643Z,8.82
2022-08-09T10:56:25.608Z,7.35
2022-08-09T10:58:56.913Z,7.60
2022-08-09T11:03:11.956Z,7.65
2022-08-09T11:04:32.724Z,7.43
2022-08-09T11:07:01.248Z,6.30
2022-08-09T11:12:29.960Z,6.78
2022-08-09T11:15:24.563Z,5.50
2022-08-09T11:18:03.593Z,6.20
2022-08-09T11:20:49.880Z,6.18
2022-08-09T11:23:24.033Z,6.55
2022-08-09T11:25:57.920Z,5.40
2022-08-09T11:28:56.382Z,6.45
2022-08-09T11:31:43.461Z,7.13
2022-08-09T11:34:48.990Z,5.70
2022-08-09T11:37:40.742Z,5.97
2022-08-09T11:40:13.765Z,5.25
2022-08-09T11:42:52.858Z,6.35
2022-08-09T11:45:42.953Z,6.13
2022-08-09T11:48:33.536Z,5.93
2022-08-09T11:53:03.371Z,5.75
2022-08-09T11:54:28.984Z,6.15
2022-08-09T11:57:59.674Z,5.05
2022-08-09T12:00:33.667Z,6.10
2022-08-09T12:03:31.983Z,5.85
2022-08-09T12:05:52.238Z,4.68
2022-08-09T12:08:23.640Z,4.90
2022-08-09T12:11:00.012Z,6.18
2022-08-09T12:14:07.969Z,6.00
2022-08-09T12:16:38.393Z,6.95
2022-08-09T12:19:11.510Z,5.78
2022-08-09T12:21:48.773Z,5.88
2022-08-09T12:24:25.367Z,6.25
2022-08-09T12:29:10.220Z,6.45
2022-08-09T12:30:02.019Z,6.78
2022-08-09T12:32:44.769Z,6.72
2022-08-09T12:35:16.941Z,6.10
2022-08-09T12:37:51.541Z,5.43
2022-08-09T12:40:26.909Z,5.63
2022-08-09T12:42:56.536Z,5.28
2022-08-09T12:45:34.507Z,5.53
2022-08-09T12:48:20.508Z,5.32
2022-08-09T12:50:59.388Z,5.47
2022-08-09T12:53:44.779Z,5.28
2022-08-09T12:56:36.921Z,5.47
2022-08-09T12:59:20.542Z,5.97
2022-08-09T13:02:09.489Z,6.00
2022-08-09T13:04:38.832Z,5.72
2022-08-09T13:07:19.595Z,5.25
2022-08-09T13:10:01.415Z,4.55
2022-08-09T13:12:29.427Z,5.38
2022-08-09T13:15:09.652Z,4.88
2022-08-09T13:18:02.491Z,4.82
2022-08-09T13:22:33.773Z,4.82
2022-08-09T13:24:17.594Z,4.97
2022-08-09T13:26:49.656Z,5.97
2022-08-09T13:29:42.012Z,5.03
2022-08-09T13:32:17.630Z,4.10
2022-08-09T13:34:47.621Z,5.65
2022-08-09T13:37:24.619Z,5.22
2022-08-09T13:41:55.141Z,4.55
2022-08-09T13:42:55.323Z,4.90
2022-08-09T13:45:31.787Z,4.65
2022-08-09T13:48:11.076Z,4.20
2022-08-09T13:50:38.795Z,4.10
2022-08-09T13:53:07.346Z,4.68
2022-08-09T13:55:36.883Z,4.40
2022-08-09T13:58:05.284Z,4.35
2022-08-09T14:00:48.158Z,3.05
2022-08-09T14:04:02.622Z,3.78
2022-08-09T14:06:25.749Z,2.60
2022-08-09T14:08:57.056Z,3.20
2022-08-09T14:11:26.501Z,4.10
2022-08-09T14:14:22.823Z,4.07
2022-08-09T14:16:42.248Z,3.88
2022-08-09T14:19:10.549Z,3.90
2022-08-09T14:21:38.562Z,3.85
2022-08-09T14:24:10.501Z,4.47
2022-08-09T14:26:51.951Z,3.83
2022-08-09T14:30:18.712Z,3.05
2022-08-09T14:32:11.188Z,3.60
2022-08-09T14:34:41.507Z,4.07
2022-08-09T14:37:09.489Z,3.10
2022-08-09T14:39:46.438Z,3.80
2022-08-09T14:42:30.275Z,3.90
2022-08-09T14:46:39.512Z,3.78
2022-08-09T14:50:34.193Z,3.58
2022-08-09T14:53:11.306Z,3.97
2022-08-09T14:55:41.979Z,4.57
2022-08-09T14:58:11.493Z,4.45
2022-08-09T15:00:42.319Z,4.18
2022-08-09T15:03:11.688Z,3.17
2022-08-09T15:05:50.326Z,3.63
2022-08-09T15:08:23.640Z,3.67
2022-08-09T15:11:01.012Z,3.28
2022-08-09T15:13:48.089Z,3.28
2022-08-09T15:16:20.818Z,3.45
2022-08-09T15:18:49.601Z,3.03
2022-08-09T15:24:12.135Z,3.78
2022-08-09T15:26:46.516Z,4.47
2022-08-09T15:30:48.303Z,3.83
2022-08-09T15:32:03.729Z,3.22
2022-08-09T15:34:35.317Z,3.95
2022-08-09T15:37:36.953Z,4.93
2022-08-09T15:40:12.122Z,3.95
2022-08-09T15:42:43.418Z,4.10
2022-08-09T15:45:15.780Z,3.60
2022-08-09T15:48:03.366Z,3.63
2022-08-09T15:50:34.637Z,3.88
2022-08-09T15:54:02.149Z,3.78
2022-08-09T15:56:21.123Z,3.08
2022-08-09T15:58:42.604Z,3.40
2022-08-09T16:01:10.751Z,3.33
2022-08-09T16:03:41.755Z,3.83
2022-08-09T16:06:32.703Z,4.43
2022-08-09T16:11:33.141Z,5.05
2022-08-09T16:14:07.161Z,4.30
2022-08-09T16:16:38.089Z,4.80
2022-08-09T16:19:09.700Z,4.43
2022-08-09T16:21:39.927Z,4.85
2022-08-09T16:24:29.811Z,4.75
2022-08-09T16:26:57.788Z,4.90
2022-08-09T16:29:36.913Z,5.72
2022-08-09T16:32:19.480Z,4.90
2022-08-09T16:34:57.822Z,5.57
2022-08-09T16:37:55.510Z,5.47
2022-08-09T16:40:20.406Z,5.28
2022-08-09T16:42:48.924Z,6.05
2022-08-09T16:45:21.180Z,5.97
2022-08-09T16:48:40.749Z,5.60
2022-08-09T16:50:39.588Z,5.93
2022-08-09T16:53:08.714Z,4.82
2022-08-09T16:55:58.548Z,5.68
2022-08-09T17:00:53.689Z,6.60
2022-08-09T17:03:23.787Z,6.60
2022-08-09T17:06:09.329Z,6.30
2022-08-09T17:08:59.894Z,6.95
2022-08-09T17:11:40.758Z,6.15
2022-08-09T17:14:26.738Z,6.72
2022-08-09T17:17:01.316Z,6.43
2022-08-09T17:19:46.819Z,6.85
2022-08-09T17:22:29.069Z,6.35
2022-08-09T17:25:09.781Z,6.45
2022-08-09T17:27:49.564Z,6.93
2022-08-09T17:30:30.919Z,6.60
2022-08-09T17:33:05.602Z,5.97
2022-08-09T17:35:50.027Z,7.68
2022-08-09T17:38:32.015Z,6.90
2022-08-09T17:41:07.485Z,6.70
2022-08-09T17:43:37.074Z,6.97
2022-08-09T17:48:51.832Z,7.20
2022-08-09T17:51:21.725Z,7.07
2022-08-09T17:53:55.268Z,7.95
2022-08-09T17:56:35.361Z,6.82
2022-08-09T17:59:09.121Z,7.07
2022-08-09T18:02:06.709Z,7.13
2022-08-09T18:04:28.831Z,8.10
2022-08-09T18:06:56.792Z,7.18
2022-08-09T18:09:35.879Z,7.32
2022-08-09T18:12:19.893Z,6.53
2022-08-09T18:14:54.420Z,7.18
2022-08-09T18:18:03.420Z,6.80
2022-08-09T18:20:56.084Z,7.45
2022-08-09T18:23:07.175Z,8.35
2022-08-09T18:25:52.428Z,7.50
2022-08-09T18:30:34.531Z,7.90
2022-08-09T18:31:12.473Z,7.68
2022-08-09T18:33:44.213Z,6.82
2022-08-09T18:36:32.053Z,7.93
2022-08-09T18:39:04.249Z,6.90
2022-08-09T18:41:34.776Z,7.60
2022-08-09T18:44:12.369Z,7.88
2022-08-09T18:46:47.211Z,7.38
2022-08-09T18:49:19.769Z,8.65
2022-08-09T18:51:55.361Z,8.75
2022-08-09T18:54:29.767Z,9.10
2022-08-09T18:57:05.851Z,8.90
2022-08-09T18:59:37.594Z,8.07
2022-08-09T19:02:18.279Z,8.68
2022-08-09T19:04:47.497Z,8.82
2022-08-09T19:07:28.357Z,8.50
2022-08-09T19:10:17.041Z,10.00
2022-08-09T19:13:01.683Z,9.30
2022-08-09T19:15:35.658Z,11.50
2022-08-09T19:18:05.844Z,10.25
2022-08-09T19:20:44.872Z,13.50
2022-08-09T19:24:35.917Z,14.10
2022-08-09T19:26:07.823Z,11.32
2022-08-09T19:28:40.053Z,11.07
2022-08-09T19:31:10.889Z,9.80
2022-08-09T19:33:38.509Z,9.10
2022-08-09T19:36:11.692Z,9.10
2022-08-09T19:38:41.118Z,7.90
2022-08-09T19:41:10.526Z,7.93
2022-08-09T19:44:01.593Z,7.97
2022-08-09T19:46:33.941Z,7.75
2022-08-09T19:50:08.110Z,8.82
2022-08-09T19:54:26.236Z,8.10
2022-08-09T19:56:55.788Z,8.35
2022-08-09T19:59:57.862Z,7.50
2022-08-09T20:02:18.111Z,8.35
2022-08-09T20:05:02.159Z,7.03
2022-08-09T20:07:59.398Z,8.13
2022-08-09T20:10:34.605Z,7.75
2022-08-09T20:13:08.188Z,7.70
2022-08-09T20:16:33.030Z,8.82
2022-08-09T20:18:28.192Z,7.65
2022-08-09T20:20:57.335Z,8.50
2022-08-09T20:23:39.087Z,8.23
2022-08-09T20:26:10.176Z,7.88
2022-08-09T20:28:47.971Z,8.65
2022-08-09T20:31:16.909Z,7.93
2022-08-09T20:33:44.922Z,8.52
2022-08-09T20:36:13.763Z,7.68
2022-08-09T20:39:27.646Z,8.88
2022-08-09T20:41:34.647Z,9.00
2022-08-09T20:44:10.224Z,9.80
2022-08-09T20:46:42.712Z,8.57
2022-08-09T20:49:14.082Z,8.32
2022-08-09T20:51:50.870Z,8.82
2022-08-09T20:54:18.930Z,8.20
2022-08-09T20:56:53.699Z,9.38
2022-08-09T20:59:50.381Z,9.20
2022-08-09T21:02:17.832Z,8.30
2022-08-09T21:05:52.230Z,8.50
2022-08-09T21:07:40.491Z,10.27
2022-08-09T21:10:10.967Z,8.68
2022-08-09T21:12:39.937Z,9.18
2022-08-09T21:15:12.502Z,9.65
2022-08-09T21:18:20.617Z,9.23
2022-08-09T21:20:31.884Z,9.82
2022-08-09T21:23:00.925Z,8.88
2022-08-09T21:30:15.974Z,8.32
2022-08-09T21:32:46.845Z,9.02
2022-08-09T21:35:15.098Z,8.07
2022-08-09T21:37:56.932Z,9.45
2022-08-09T21:40:32.708Z,9.32
2022-08-09T21:43:01.931Z,8.90
2022-08-09T21:45:30.645Z,9.98
2022-08-09T21:47:59.404Z,10.00
2022-08-09T21:50:36.181Z,8.98
2022-08-09T21:53:15.763Z,10.02
2022-08-09T21:55:51.625Z,9.68
2022-08-09T21:58:19.466Z,9.73
2022-08-09T22:00:48.550Z,9.90
2022-08-09T22:03:25.591Z,10.48
2022-08-09T22:05:55.439Z,10.13
2022-08-09T22:08:26.186Z,9.80
2022-08-09T22:11:48.953Z,11.27
2022-08-09T22:13:44.070Z,9.60
2022-08-09T22:16:12.130Z,10.63
2022-08-09T22:18:53.121Z,10.95
2022-08-09T22:21:50.073Z,10.38
2022-08-09T22:24:21.152Z,10.02
2022-08-09T22:26:54.585Z,10.13
2022-08-09T22:29:28.389Z,9.38
2022-08-09T22:32:00.263Z,9.43
2022-08-09T22:34:28.202Z,11.18
2022-08-09T22:36:57.847Z,10.63
2022-08-09T22:39:57.259Z,10.27
2022-08-09T22:42:16.253Z,9.98
2022-08-09T22:45:11.543Z,10.35
2022-08-09T22:48:10.695Z,11.25
2022-08-09T22:50:32.837Z,11.25
2022-08-09T22:53:03.530Z,10.45
2022-08-09T22:56:06.124Z,10.43
2022-08-09T22:58:32.327Z,10.18
2022-08-09T23:01:03.405Z,9.63
2022-08-09T23:04:04.160Z,10.27
2022-08-09T23:06:35.230Z,9.75
2022-08-09T23:09:07.875Z,10.13
2022-08-09T23:11:35.823Z,11.02
2022-08-09T23:14:04.158Z,11.88
2022-08-09T23:16:38.161Z,11.20
2022-08-09T23:19:05.776Z,11.13
2022-08-09T23:21:35.175Z,12.10
2022-08-09T23:24:08.436Z,10.52
2022-08-09T23:26:38.354Z,11.00
2022-08-09T23:29:10.017Z,10.82
2022-08-09T23:31:38.054Z,11.18
2022-08-09T23:34:05.812Z,10.75
2022-08-09T23:36:35.281Z,11.57
2022-08-09T23:39:06.240Z,12.30
2022-08-09T23:41:35.172Z,11.27
2022-08-09T23:44:03.805Z,10.95
2022-08-09T23:46:32.685Z,11.93
2022-08-09T23:49:01.100Z,9.82
2022-08-09T23:51:29.264Z,10.88
2022-08-09T23:54:02.667Z,11.48
2022-08-09T23:56:53.058Z,10.45
2022-08-09T23:59:21.851Z,10.85
